createdAt,value
2019-04-20T00:01:47.337Z,65.55
2019-04-20T00:04:19.434Z,65.14
2019-04-20T00:06:47.792Z,65.76
2019-04-20T00:09:17.130Z,65.76
2019-04-20T00:11:51.698Z,65.68
2019-04-20T00:14:19.304Z,65.77
2019-04-20T00:16:42.015Z,65.32
2019-04-20T00:19:10.548Z,65.24
2019-04-20T00:21:52.050Z,65.14
2019-04-20T00:24:22.935Z,65.83
2019-04-20T00:27:10.627Z,66.30
2019-04-20T00:29:32.202Z,66.79
2019-04-20T00:31:52.316Z,67.78
2019-04-20T00:34:18.229Z,68.43
2019-04-20T00:36:41.097Z,67.91
2019-04-20T00:39:11.114Z,67.18
2019-04-20T00:41:45.157Z,67.53
2019-04-20T00:44:13.033Z,69.09
2019-04-20T00:46:41.976Z,68.58
2019-04-20T00:49:21.661Z,68.53
2019-04-20T00:51:52.477Z,67.77
2019-04-20T00:54:02.549Z,68.25
2019-04-20T00:56:32.940Z,68.49
2019-04-20T00:59:13.098Z,67.79
2019-04-20T01:01:47.650Z,67.64
2019-04-20T01:04:30.071Z,67.63
2019-04-20T01:07:02.651Z,68.05
2019-04-20T01:09:24.592Z,67.31
2019-04-20T01:11:52.834Z,67.47
2019-04-20T01:14:30.227Z,67.57
2019-04-20T01:16:58.798Z,67.21
2019-04-20T01:19:21.572Z,69.22
2019-04-20T01:21:53.399Z,67.90
2019-04-20T01:24:24.808Z,69.13
2019-04-20T01:26:50.644Z,69.09
2019-04-20T01:29:26.067Z,67.67
2019-04-20T01:31:57.048Z,67.70
2019-04-20T01:34:26.558Z,67.28
2019-04-20T01:36:56.355Z,67.34
2019-04-20T01:39:20.599Z,67.41
2019-04-20T01:41:41.344Z,68.20
2019-04-20T01:44:09.163Z,68.81
2019-04-20T01:46:45.423Z,68.98
2019-04-20T01:49:15.093Z,68.97
2019-04-20T01:51:48.261Z,68.36
2019-04-20T01:54:21.267Z,69.40
2019-04-20T01:56:51.994Z,68.88
2019-04-20T01:59:34.731Z,68.51
2019-04-20T02:02:17.765Z,68.83
2019-04-20T02:05:06.053Z,68.48
2019-04-20T02:07:34.630Z,68.50
2019-04-20T02:09:59.882Z,67.74
2019-04-20T02:12:29.243Z,68.18
2019-04-20T02:14:58.968Z,68.08
2019-04-20T02:17:31.918Z,68.39
2019-04-20T02:20:10.459Z,68.03
2019-04-20T02:22:39.664Z,68.17
2019-04-20T02:24:50.934Z,67.96
2019-04-20T02:27:20.597Z,68.11
2019-04-20T02:30:13.361Z,67.87
2019-04-20T02:33:01.607Z,68.07
2019-04-20T02:40:54.000Z,67.26
2019-04-20T02:43:20.857Z,66.77
2019-04-20T02:48:08.091Z,66.73
2019-04-20T02:50:44.173Z,67.13
2019-04-20T02:53:20.546Z,66.57
2019-04-20T02:58:11.340Z,66.70
2019-04-20T03:00:35.442Z,67.02
2019-04-20T03:02:48.693Z,66.87
2019-04-20T03:05:22.985Z,66.07
2019-04-20T03:07:57.702Z,66.18
2019-04-20T03:10:25.016Z,66.32
2019-04-20T03:13:01.485Z,66.26
2019-04-20T03:15:31.440Z,65.95
2019-04-20T03:17:51.305Z,66.21
2019-04-20T03:20:23.058Z,66.30
2019-04-20T03:23:11.155Z,66.22
2019-04-20T03:25:45.074Z,67.31
2019-04-20T03:28:11.876Z,66.86
2019-04-20T03:31:38.012Z,67.41
2019-04-20T03:33:43.391Z,67.50
2019-04-20T03:36:09.331Z,67.49
2019-04-20T03:38:19.833Z,67.97
2019-04-20T03:40:45.362Z,67.67
2019-04-20T03:43:02.009Z,68.10
2019-04-20T03:45:39.211Z,67.02
2019-04-20T03:48:09.160Z,67.36
2019-04-20T03:50:46.621Z,67.99
2019-04-20T03:53:19.253Z,68.17
2019-04-20T03:56:05.152Z,68.18
2019-04-20T03:58:50.466Z,68.11
2019-04-20T04:02:12.095Z,67.89
2019-04-20T04:04:38.908Z,67.90
2019-04-20T04:06:51.463Z,67.75
2019-04-20T04:09:27.417Z,68.91
2019-04-20T04:11:56.060Z,68.59
2019-04-20T04:14:13.512Z,68.60
2019-04-20T04:16:45.679Z,68.11
2019-04-20T04:19:18.056Z,68.23
2019-04-20T04:21:53.798Z,67.46
2019-04-20T04:24:22.946Z,67.77
2019-04-20T04:26:57.153Z,68.54
2019-04-20T04:29:30.065Z,68.87
2019-04-20T04:32:05.515Z,68.63
2019-04-20T04:34:23.904Z,68.79
2019-04-20T04:36:53.938Z,69.43
2019-04-20T04:39:27.968Z,69.40
2019-04-20T04:42:01.268Z,69.54
2019-04-20T04:44:17.434Z,68.73
2019-04-20T04:46:33.861Z,68.83
2019-04-20T04:49:08.450Z,68.06
2019-04-20T04:51:40.321Z,67.95
2019-04-20T04:54:03.635Z,68.46
2019-04-20T04:56:27.448Z,68.30
2019-04-20T04:58:56.222Z,68.20
2019-04-20T05:01:28.468Z,68.80
2019-04-20T05:04:14.745Z,68.45
2019-04-20T05:06:33.002Z,69.27
2019-04-20T05:08:57.956Z,69.18
2019-04-20T05:11:21.977Z,69.03
2019-04-20T05:13:56.850Z,67.67
2019-04-20T05:16:42.141Z,67.42
2019-04-20T05:19:13.472Z,67.13
2019-04-20T05:21:57.430Z,66.56
2019-04-20T05:24:35.666Z,66.35
2019-04-20T05:27:30.079Z,65.20
2019-04-20T05:29:39.495Z,62.68
2019-04-20T05:35:11.145Z,59.89
2019-04-20T05:37:43.516Z,56.75
2019-04-20T05:40:05.904Z,56.75
2019-04-20T05:42:39.423Z,55.53
2019-04-20T05:45:01.943Z,55.26
2019-04-20T05:47:33.353Z,53.97
2019-04-20T05:49:58.734Z,53.42
2019-04-20T05:55:04.412Z,53.84
2019-04-20T05:57:34.914Z,51.18
2019-04-20T06:00:23.470Z,52.06
2019-04-20T06:02:33.175Z,49.47
2019-04-20T06:05:05.398Z,52.43
2019-04-20T06:07:29.694Z,48.85
2019-04-20T06:09:59.433Z,47.63
2019-04-20T06:12:28.559Z,48.91
2019-04-20T06:15:08.289Z,49.58
2019-04-20T06:18:05.148Z,49.18
2019-04-20T06:20:35.814Z,46.96
2019-04-20T06:23:11.954Z,47.50
2019-04-20T06:25:57.168Z,46.10
2019-04-20T06:28:10.522Z,45.36
2019-04-20T06:30:37.172Z,44.13
2019-04-20T06:34:05.579Z,45.29
2019-04-20T06:36:23.204Z,44.18
2019-04-20T06:38:57.441Z,46.74
2019-04-20T06:43:45.813Z,43.60
2019-04-20T06:46:10.045Z,44.65
2019-04-20T06:48:40.151Z,43.17
2019-04-20T06:51:16.220Z,44.49
2019-04-20T06:53:47.361Z,43.28
2019-04-20T06:56:24.681Z,42.75
2019-04-20T06:58:53.810Z,41.50
2019-04-20T07:01:17.126Z,41.86
2019-04-20T07:04:02.271Z,40.28
2019-04-20T07:06:30.798Z,40.60
2019-04-20T07:11:18.838Z,39.11
2019-04-20T07:13:30.949Z,39.98
2019-04-20T07:16:36.318Z,39.88
2019-04-20T07:19:09.156Z,37.43
2019-04-20T07:22:10.506Z,36.08
2019-04-20T07:24:30.595Z,38.69
2019-04-20T07:26:59.154Z,38.15
2019-04-20T07:29:31.881Z,38.80
2019-04-20T07:31:48.492Z,37.82
2019-04-20T07:34:21.452Z,38.46
2019-04-20T07:37:07.042Z,37.95
2019-04-20T07:39:21.625Z,34.85
2019-04-20T07:41:54.725Z,36.46
2019-04-20T07:44:21.576Z,36.34
2019-04-20T07:46:59.841Z,37.36
2019-04-20T07:49:16.321Z,35.61
2019-04-20T07:51:31.467Z,37.42
2019-04-20T07:54:23.295Z,36.03
2019-04-20T07:56:46.316Z,35.45
2019-04-20T07:58:59.664Z,36.72
2019-04-20T08:02:07.800Z,37.66
2019-04-20T08:04:33.905Z,35.03
2019-04-20T08:06:51.911Z,35.80
2019-04-20T08:09:26.129Z,34.10
2019-04-20T08:12:14.153Z,36.67
2019-04-20T08:14:39.916Z,35.41
2019-04-20T08:19:35.345Z,34.26
2019-04-20T08:22:10.780Z,31.54
2019-04-20T08:24:29.967Z,31.99
2019-04-20T08:26:50.602Z,29.04
2019-04-20T08:29:32.736Z,30.16
2019-04-20T08:32:17.861Z,27.79
2019-04-20T08:34:56.606Z,27.77
2019-04-20T08:37:14.538Z,28.11
2019-04-20T08:42:13.312Z,29.14
2019-04-20T08:47:18.282Z,30.37
2019-04-20T08:50:11.991Z,27.91
2019-04-20T08:52:55.560Z,26.41
2019-04-20T08:55:06.053Z,26.04
2019-04-20T08:57:15.755Z,27.75
2019-04-20T08:59:44.304Z,27.86
2019-04-20T09:02:14.261Z,27.10
2019-04-20T09:04:48.994Z,24.67
2019-04-20T09:07:17.901Z,24.19
2019-04-20T09:10:04.907Z,26.21
2019-04-20T09:12:26.845Z,24.31
2019-04-20T09:14:40.250Z,25.78
2019-04-20T09:17:32.578Z,25.70
2019-04-20T09:19:58.667Z,24.40
2019-04-20T09:22:46.954Z,24.80
2019-04-20T09:25:43.168Z,23.73
2019-04-20T09:27:40.870Z,23.69
2019-04-20T09:30:21.625Z,24.27
2019-04-20T09:32:56.628Z,23.02
2019-04-20T09:35:27.993Z,25.51
2019-04-20T09:38:00.220Z,22.93
2019-04-20T09:40:33.613Z,23.98
2019-04-20T09:42:53.415Z,24.62
2019-04-20T09:45:35.117Z,22.59
2019-04-20T09:47:55.322Z,23.91
2019-04-20T09:50:38.704Z,21.54
2019-04-20T09:53:05.929Z,22.12
2019-04-20T09:55:32.868Z,22.63
2019-04-20T09:58:01.081Z,23.20
2019-04-20T10:00:35.049Z,22.12
2019-04-20T10:02:48.355Z,21.29
2019-04-20T10:05:15.712Z,22.27
2019-04-20T10:07:48.371Z,21.68
2019-04-20T10:10:21.437Z,23.47
2019-04-20T10:12:41.894Z,23.84
2019-04-20T10:15:15.642Z,22.91
2019-04-20T10:17:38.646Z,19.42
2019-04-20T10:20:11.561Z,21.57
2019-04-20T10:22:36.385Z,20.63
2019-04-20T10:25:04.688Z,20.41
2019-04-20T10:27:32.750Z,19.70
2019-04-20T10:30:02.768Z,18.90
2019-04-20T10:32:34.235Z,22.38
2019-04-20T10:34:57.189Z,19.74
2019-04-20T10:37:29.347Z,20.07
2019-04-20T10:39:56.582Z,21.43
2019-04-20T10:42:28.180Z,20.74
2019-04-20T10:44:57.204Z,20.25
2019-04-20T10:47:25.132Z,21.40
2019-04-20T10:49:53.307Z,20.23
2019-04-20T10:52:20.573Z,22.37
2019-04-20T10:54:48.157Z,17.97
2019-04-20T10:57:15.503Z,18.98
2019-04-20T10:59:43.710Z,20.24
2019-04-20T11:02:11.983Z,20.48
2019-04-20T11:04:39.008Z,20.23
2019-04-20T11:07:05.920Z,19.13
2019-04-20T11:09:36.530Z,21.02
2019-04-20T11:12:06.264Z,21.79
2019-04-20T11:14:36.671Z,23.32
2019-04-20T11:17:02.626Z,21.13
2019-04-20T11:19:29.509Z,21.10
2019-04-20T11:21:56.642Z,21.86
2019-04-20T11:24:23.924Z,18.19
2019-04-20T11:26:52.111Z,18.40
2019-04-20T11:29:20.088Z,18.65
2019-04-20T11:31:51.103Z,20.68
2019-04-20T11:34:23.548Z,17.89
2019-04-20T11:36:45.591Z,18.70
2019-04-20T11:39:12.907Z,19.02
2019-04-20T11:41:39.659Z,19.26
2019-04-20T11:44:09.475Z,17.54
2019-04-20T11:46:36.591Z,18.43
2019-04-20T11:49:03.830Z,17.46
2019-04-20T11:51:31.781Z,16.84
2019-04-20T11:54:00.595Z,19.15
2019-04-20T11:56:33.346Z,17.26
2019-04-20T11:58:57.066Z,18.86
2019-04-20T12:01:43.980Z,19.25
2019-04-20T12:04:22.773Z,18.62
2019-04-20T12:06:34.856Z,20.05
2019-04-20T12:09:03.241Z,18.29
2019-04-20T12:11:45.411Z,19.51
2019-04-20T12:14:01.179Z,17.48
2019-04-20T12:16:29.715Z,17.61
2019-04-20T12:18:58.200Z,17.59
2019-04-20T12:21:24.813Z,17.77
2019-04-20T12:23:51.991Z,18.92
2019-04-20T12:26:20.526Z,19.48
2019-04-20T12:28:47.674Z,18.22
2019-04-20T12:31:20.326Z,17.62
2019-04-20T12:33:44.334Z,17.06
2019-04-20T12:36:12.375Z,17.22
2019-04-20T12:38:41.195Z,18.59
2019-04-20T12:41:10.982Z,20.38
2019-04-20T12:43:38.141Z,20.97
2019-04-20T12:46:05.519Z,18.98
2019-04-20T12:48:33.605Z,19.46
2019-04-20T12:51:01.619Z,17.40
2019-04-20T12:53:28.674Z,18.99
2019-04-20T12:55:56.791Z,17.55
2019-04-20T12:58:23.784Z,18.51
2019-04-20T13:00:52.249Z,19.45
2019-04-20T13:03:21.454Z,21.57
2019-04-20T13:05:50.083Z,22.05
2019-04-20T13:08:23.289Z,21.51
2019-04-20T13:10:54.880Z,24.52
2019-04-20T13:13:34.547Z,22.61
2019-04-20T13:16:08.174Z,22.19
2019-04-20T13:19:01.548Z,24.38
2019-04-20T13:21:29.236Z,24.94
2019-04-20T13:23:56.631Z,22.57
2019-04-20T13:26:25.072Z,25.40
2019-04-20T13:28:55.009Z,24.76
2019-04-20T13:31:24.012Z,24.17
2019-04-20T13:33:51.610Z,25.01
2019-04-20T13:36:19.822Z,25.21
2019-04-20T13:38:47.746Z,25.48
2019-04-20T13:41:15.780Z,23.64
2019-04-20T13:43:43.802Z,23.23
2019-04-20T13:46:11.200Z,23.19
2019-04-20T13:48:39.259Z,25.10
2019-04-20T13:54:01.752Z,24.62
2019-04-20T13:56:30.096Z,21.92
2019-04-20T13:59:14.882Z,24.40
2019-04-20T14:02:02.645Z,23.77
2019-04-20T14:04:44.490Z,24.03
2019-04-20T14:07:14.172Z,25.71
2019-04-20T14:09:41.565Z,26.31
2019-04-20T14:12:17.297Z,24.93
2019-04-20T14:14:39.237Z,25.81
2019-04-20T14:17:07.411Z,22.43
2019-04-20T14:19:36.894Z,23.86
2019-04-20T14:22:06.014Z,24.45
2019-04-20T14:24:33.190Z,26.16
2019-04-20T14:27:01.202Z,25.42
2019-04-20T14:29:27.923Z,26.37
2019-04-20T14:31:55.967Z,25.10
2019-04-20T14:34:23.224Z,26.28
2019-04-20T14:36:50.933Z,25.92
2019-04-20T14:39:20.283Z,28.10
2019-04-20T14:41:48.647Z,25.66
2019-04-20T14:44:16.170Z,27.93
2019-04-20T14:46:42.971Z,28.09
2019-04-20T14:49:10.411Z,27.99
2019-04-20T14:51:39.546Z,25.10
2019-04-20T14:54:07.523Z,28.01
2019-04-20T14:56:35.801Z,27.38
2019-04-20T14:59:11.464Z,27.03
2019-04-20T15:01:58.684Z,30.56
2019-04-20T15:04:27.391Z,28.23
2019-04-20T15:06:54.857Z,27.32
2019-04-20T15:09:21.808Z,28.23
2019-04-20T15:11:48.567Z,26.83
2019-04-20T15:14:16.508Z,27.49
2019-04-20T15:16:44.575Z,27.50
2019-04-20T15:19:41.446Z,28.59
2019-04-20T15:22:27.465Z,27.42
2019-04-20T15:24:55.634Z,27.28
2019-04-20T15:27:24.400Z,27.61
2019-04-20T15:29:51.297Z,28.15
2019-04-20T15:32:19.163Z,26.08
2019-04-20T15:34:46.810Z,27.13
2019-04-20T15:37:14.110Z,27.90
2019-04-20T15:39:41.154Z,27.53
2019-04-20T15:42:09.542Z,28.77
2019-04-20T15:44:37.577Z,29.97
2019-04-20T15:47:04.361Z,26.21
2019-04-20T15:49:31.503Z,27.71
2019-04-20T15:51:59.627Z,25.96
2019-04-20T15:54:29.496Z,26.75
2019-04-20T15:57:01.506Z,28.89
2019-04-20T15:59:24.747Z,27.63
2019-04-20T16:01:57.450Z,27.35
2019-04-20T16:04:44.600Z,26.23
2019-04-20T16:07:13.062Z,26.38
2019-04-20T16:09:40.028Z,28.46
2019-04-20T16:12:06.955Z,26.43
2019-04-20T16:14:33.585Z,29.29
2019-04-20T16:17:03.934Z,25.63
2019-04-20T16:19:40.686Z,25.87
2019-04-20T16:21:59.585Z,27.30
2019-04-20T16:24:32.355Z,26.64
2019-04-20T16:27:25.412Z,26.97
2019-04-20T16:29:53.472Z,27.07
2019-04-20T16:32:20.680Z,27.68
2019-04-20T16:34:48.609Z,29.13
2019-04-20T16:37:16.815Z,28.25
2019-04-20T16:39:43.771Z,30.13
2019-04-20T16:42:14.513Z,30.05
2019-04-20T16:44:43.026Z,30.60
2019-04-20T16:47:10.198Z,30.13
2019-04-20T16:49:37.193Z,31.58
2019-04-20T16:52:05.199Z,29.22
2019-04-20T16:54:33.514Z,30.27
2019-04-20T16:57:00.647Z,29.32
2019-04-20T16:59:28.253Z,28.80
2019-04-20T17:01:56.209Z,31.13
2019-04-20T17:04:24.625Z,32.53
2019-04-20T17:07:10.320Z,30.40
2019-04-20T17:09:38.096Z,31.50
2019-04-20T17:12:05.837Z,31.99
2019-04-20T17:14:33.806Z,33.54
2019-04-20T17:17:01.749Z,32.96
2019-04-20T17:19:28.544Z,31.42
2019-04-20T17:21:57.321Z,32.09
2019-04-20T17:24:25.063Z,31.96
2019-04-20T17:27:09.016Z,33.05
2019-04-20T17:29:48.646Z,32.91
2019-04-20T17:32:21.175Z,33.84
2019-04-20T17:35:01.803Z,32.15
2019-04-20T17:37:16.578Z,33.50
2019-04-20T17:40:09.399Z,33.98
2019-04-20T17:42:26.478Z,33.32
2019-04-20T17:44:53.067Z,33.94
2019-04-20T17:47:34.848Z,34.77
2019-04-20T17:49:59.702Z,34.47
2019-04-20T17:52:37.304Z,35.47
2019-04-20T17:54:47.904Z,35.55
2019-04-20T17:57:15.267Z,36.92
2019-04-20T17:59:53.174Z,37.13
2019-04-20T18:02:52.183Z,39.10
2019-04-20T18:05:37.269Z,38.06
2019-04-20T18:08:07.668Z,38.43
2019-04-20T18:10:28.924Z,40.26
2019-04-20T18:12:44.564Z,40.87
2019-04-20T18:15:27.391Z,41.40
2019-04-20T18:18:18.740Z,41.85
2019-04-20T18:20:45.494Z,42.83
2019-04-20T18:23:12.914Z,43.05
2019-04-20T18:26:06.438Z,44.45
2019-04-20T18:28:20.849Z,44.29
2019-04-20T18:30:50.492Z,44.94
2019-04-20T18:33:13.573Z,44.68
2019-04-20T18:35:45.583Z,44.51
2019-04-20T18:38:14.457Z,45.92
2019-04-20T18:40:48.362Z,45.53
2019-04-20T18:43:14.505Z,45.96
2019-04-20T18:45:58.489Z,46.89
2019-04-20T18:48:24.625Z,46.00
2019-04-20T18:50:39.803Z,45.85
2019-04-20T18:53:01.687Z,46.54
2019-04-20T18:55:38.816Z,46.17
2019-04-20T18:57:57.350Z,47.05
2019-04-20T19:00:30.289Z,47.92
2019-04-20T19:02:56.020Z,47.89
2019-04-20T19:05:24.005Z,47.28
2019-04-20T19:07:59.233Z,46.58
2019-04-20T19:10:27.552Z,47.38
2019-04-20T19:12:59.534Z,47.30
2019-04-20T19:15:55.971Z,46.10
2019-04-20T19:18:50.463Z,47.16
2019-04-20T19:21:03.967Z,46.91
2019-04-20T19:23:33.790Z,46.39
2019-04-20T19:26:06.134Z,46.66
2019-04-20T19:28:37.793Z,46.33
2019-04-20T19:31:12.602Z,48.17
2019-04-20T19:33:37.678Z,48.24
2019-04-20T19:36:10.573Z,48.41
2019-04-20T19:38:30.149Z,48.27
2019-04-20T19:41:01.698Z,48.52
2019-04-20T19:43:30.772Z,47.25
2019-04-20T19:46:31.208Z,48.98
2019-04-20T19:48:34.382Z,49.32
2019-04-20T19:51:09.800Z,48.54
2019-04-20T19:53:45.172Z,49.10
2019-04-20T19:56:03.481Z,49.61
2019-04-20T19:58:32.733Z,48.90
2019-04-20T20:00:53.441Z,50.55
2019-04-20T20:03:19.935Z,51.20
2019-04-20T20:05:51.848Z,51.17
2019-04-20T20:08:23.655Z,51.87
2019-04-20T20:10:48.452Z,51.29
2019-04-20T20:13:36.174Z,51.29
2019-04-20T20:16:01.934Z,51.81
2019-04-20T20:18:46.578Z,51.81
2019-04-20T20:21:11.079Z,52.29
2019-04-20T20:23:29.988Z,51.89
2019-04-20T20:26:05.412Z,51.94
2019-04-20T20:28:43.496Z,51.60
2019-04-20T20:31:12.592Z,50.82
2019-04-20T20:33:43.815Z,52.66
2019-04-20T20:36:06.610Z,51.90
2019-04-20T20:38:36.998Z,52.38
2019-04-20T20:41:08.749Z,52.04
2019-04-20T20:43:40.999Z,52.00
2019-04-20T20:46:05.016Z,53.16
2019-04-20T20:48:38.768Z,53.06
2019-04-20T20:51:12.211Z,52.82
2019-04-20T20:53:38.680Z,54.03
2019-04-20T20:56:06.106Z,53.97
2019-04-20T20:58:38.682Z,53.97
2019-04-20T21:00:57.566Z,55.13
2019-04-20T21:03:28.279Z,55.00
2019-04-20T21:05:49.689Z,55.00
2019-04-20T21:08:17.473Z,54.31
2019-04-20T21:10:45.805Z,54.84
2019-04-20T21:13:14.274Z,54.89
2019-04-20T21:16:01.322Z,53.79
2019-04-20T21:18:43.641Z,55.55
2019-04-20T21:21:15.051Z,55.55
2019-04-20T21:23:40.436Z,55.21
2019-04-20T21:26:22.893Z,55.15
2019-04-20T21:28:39.870Z,55.66
2019-04-20T21:31:16.235Z,54.39
2019-04-20T21:33:40.098Z,54.78
2019-04-20T21:36:07.081Z,55.44
2019-04-20T21:38:39.316Z,55.29
2019-04-20T21:41:09.437Z,54.90
2019-04-20T21:43:38.736Z,55.42
2019-04-20T21:46:05.445Z,54.68
2019-04-20T21:48:43.925Z,54.54
2019-04-20T21:51:15.187Z,55.75
2019-04-20T21:53:32.978Z,55.29
2019-04-20T21:55:57.525Z,55.53
2019-04-20T21:58:35.196Z,55.53
2019-04-20T22:01:08.065Z,55.23
2019-04-20T22:03:26.845Z,54.61
2019-04-20T22:06:02.474Z,54.05
2019-04-20T22:08:30.468Z,54.05
2019-04-20T22:10:59.807Z,55.30
2019-04-20T22:13:33.550Z,55.08
2019-04-20T22:16:04.743Z,55.17
2019-04-20T22:18:27.058Z,55.17
2019-04-20T22:21:05.999Z,54.47
2019-04-20T22:23:46.628Z,53.90
2019-04-20T22:26:03.097Z,53.90
2019-04-20T22:28:22.293Z,54.37
2019-04-20T22:30:50.393Z,55.19
2019-04-20T22:33:23.578Z,55.19
2019-04-20T22:35:54.871Z,54.91
2019-04-20T22:38:26.750Z,54.58
2019-04-20T22:40:56.627Z,55.03
2019-04-20T22:43:27.587Z,55.45
2019-04-20T22:45:55.306Z,55.37
2019-04-20T22:48:22.931Z,55.74
2019-04-20T22:51:10.315Z,55.40
2019-04-20T22:53:36.418Z,56.24
2019-04-20T22:56:16.732Z,56.89
2019-04-20T22:58:34.774Z,56.33
2019-04-20T23:00:54.309Z,57.59
2019-04-20T23:03:18.706Z,57.29
2019-04-20T23:05:46.859Z,57.39
2019-04-20T23:08:14.887Z,57.88
2019-04-20T23:10:45.001Z,58.05
2019-04-20T23:13:11.480Z,58.45
2019-04-20T23:15:43.312Z,58.42
2019-04-20T23:18:08.670Z,58.59
2019-04-20T23:20:39.433Z,58.81
2019-04-20T23:23:05.380Z,58.38
2019-04-20T23:25:33.391Z,58.58
2019-04-20T23:28:06.466Z,58.78
2019-04-20T23:30:33.569Z,58.90
2019-04-20T23:32:59.814Z,59.19
2019-04-20T23:35:28.072Z,59.27
2019-04-20T23:38:01.607Z,59.26
2019-04-20T23:40:23.659Z,59.83
2019-04-20T23:42:57.876Z,59.45
2019-04-20T23:45:52.664Z,60.45
2019-04-20T23:48:28.471Z,59.87
2019-04-20T23:51:11.372Z,59.40
2019-04-20T23:53:37.647Z,60.45
2019-04-20T23:55:52.095Z,60.08
2019-04-20T23:58:21.151Z,59.23
